Terminal Aerodrome Forecast
Issued by NWS

Home | Current Version | Previous Version | Text Only | Print | Product List | Glossary Off
Versions: 1 2 3 4 5 6 7 8 9 10 11 12 13 14 15 16 17

241
FTUS43 KIWX 031735
TAFSBN
TAF
KSBN 031735Z 0318/0418 31009KT P6SM SCT040
     FM040200 22009KT P6SM BKN100
     FM040900 22012KT 5SM SHRA BR OVC020
     FM041300 30014G24KT 3SM -RA BR OVC007=

USA.gov is the U.S. government's official web portal to all federal, state and local government web resources and services.